sensor_id;sensor_type;location;lat;lon;timestamp;P1;durP1;ratioP1;P2;durP2;ratioP2
70543;SDS011;58097;48.364;-1.224;2023-03-12T00:01:41;31.58;;;6.43;;
70543;SDS011;58097;48.364;-1.224;2023-03-12T00:04:06;24.23;;;5.68;;
70543;SDS011;58097;48.364;-1.224;2023-03-12T00:06:32;24.05;;;4.65;;
70543;SDS011;58097;48.364;-1.224;2023-03-12T00:08:57;22.20;;;5.65;;
70543;SDS011;58097;48.364;-1.224;2023-03-12T00:11:25;35.17;;;5.75;;
70543;SDS011;58097;48.364;-1.224;2023-03-12T00:13:53;31.50;;;5.25;;
70543;SDS011;58097;48.364;-1.224;2023-03-12T00:16:22;29.92;;;6.85;;
70543;SDS011;58097;48.364;-1.224;2023-03-12T00:18:48;24.63;;;5.60;;
70543;SDS011;58097;48.364;-1.224;2023-03-12T00:21:14;31.05;;;7.95;;
70543;SDS011;58097;48.364;-1.224;2023-03-12T00:23:40;27.25;;;6.85;;
70543;SDS011;58097;48.364;-1.224;2023-03-12T00:26:07;24.90;;;5.30;;
70543;SDS011;58097;48.364;-1.224;2023-03-12T00:28:34;27.23;;;5.35;;
70543;SDS011;58097;48.364;-1.224;2023-03-12T00:31:01;23.70;;;4.40;;
70543;SDS011;58097;48.364;-1.224;2023-03-12T00:33:28;25.63;;;5.90;;
70543;SDS011;58097;48.364;-1.224;2023-03-12T00:35:54;34.58;;;7.43;;
70543;SDS011;58097;48.364;-1.224;2023-03-12T00:38:20;34.95;;;9.20;;
70543;SDS011;58097;48.364;-1.224;2023-03-12T00:40:46;35.97;;;7.97;;
70543;SDS011;58097;48.364;-1.224;2023-03-12T00:43:12;41.28;;;10.50;;
70543;SDS011;58097;48.364;-1.224;2023-03-12T00:45:38;34.80;;;8.27;;
70543;SDS011;58097;48.364;-1.224;2023-03-12T00:48:03;33.50;;;6.90;;
70543;SDS011;58097;48.364;-1.224;2023-03-12T00:50:28;25.70;;;6.35;;
70543;SDS011;58097;48.364;-1.224;2023-03-12T00:52:54;41.05;;;10.18;;
70543;SDS011;58097;48.364;-1.224;2023-03-12T00:55:19;20.05;;;4.65;;
70543;SDS011;58097;48.364;-1.224;2023-03-12T00:57:44;24.50;;;5.72;;
70543;SDS011;58097;48.364;-1.224;2023-03-12T01:00:10;27.08;;;4.65;;
70543;SDS011;58097;48.364;-1.224;2023-03-12T01:02:37;33.63;;;7.45;;
70543;SDS011;58097;48.364;-1.224;2023-03-12T01:05:04;29.05;;;6.28;;
70543;SDS011;58097;48.364;-1.224;2023-03-12T01:07:31;30.02;;;6.30;;
70543;SDS011;58097;48.364;-1.224;2023-03-12T01:09:56;34.03;;;7.25;;
70543;SDS011;58097;48.364;-1.224;2023-03-12T01:12:22;38.88;;;7.70;;
70543;SDS011;58097;48.364;-1.224;2023-03-12T01:14:47;30.98;;;5.85;;
70543;SDS011;58097;48.364;-1.224;2023-03-12T01:17:13;37.88;;;7.50;;
70543;SDS011;58097;48.364;-1.224;2023-03-12T01:19:38;21.83;;;5.10;;
70543;SDS011;58097;48.364;-1.224;2023-03-12T01:22:04;30.48;;;6.30;;
70543;SDS011;58097;48.364;-1.224;2023-03-12T01:24:29;28.67;;;4.90;;
70543;SDS011;58097;48.364;-1.224;2023-03-12T01:26:54;25.92;;;4.38;;
70543;SDS011;58097;48.364;-1.224;2023-03-12T01:29:20;30.40;;;6.78;;
70543;SDS011;58097;48.364;-1.224;2023-03-12T01:31:46;29.42;;;5.78;;
70543;SDS011;58097;48.364;-1.224;2023-03-12T01:34:11;25.85;;;4.95;;
70543;SDS011;58097;48.364;-1.224;2023-03-12T01:36:37;24.75;;;6.10;;
70543;SDS011;58097;48.364;-1.224;2023-03-12T01:39:02;30.33;;;5.72;;
70543;SDS011;58097;48.364;-1.224;2023-03-12T01:41:29;29.27;;;5.88;;
70543;SDS011;58097;48.364;-1.224;2023-03-12T01:43:56;30.73;;;6.53;;
70543;SDS011;58097;48.364;-1.224;2023-03-12T01:48:54;33.33;;;6.82;;
70543;SDS011;58097;48.364;-1.224;2023-03-12T01:51:27;40.45;;;8.15;;
70543;SDS011;58097;48.364;-1.224;2023-03-12T01:53:59;30.27;;;7.05;;
70543;SDS011;58097;48.364;-1.224;2023-03-12T01:56:27;26.25;;;5.70;;
70543;SDS011;58097;48.364;-1.224;2023-03-12T01:58:57;46.88;;;6.22;;
70543;SDS011;58097;48.364;-1.224;2023-03-12T02:01:26;32.40;;;6.10;;
70543;SDS011;58097;48.364;-1.224;2023-03-12T02:03:53;32.90;;;5.70;;
70543;SDS011;58097;48.364;-1.224;2023-03-12T02:06:22;43.20;;;7.05;;
70543;SDS011;58097;48.364;-1.224;2023-03-12T02:08:53;38.70;;;7.35;;
70543;SDS011;58097;48.364;-1.224;2023-03-12T02:11:19;26.13;;;5.32;;
70543;SDS011;58097;48.364;-1.224;2023-03-12T02:13:44;28.98;;;6.47;;
70543;SDS011;58097;48.364;-1.224;2023-03-12T02:16:10;25.23;;;5.97;;
70543;SDS011;58097;48.364;-1.224;2023-03-12T02:18:35;36.70;;;5.57;;
70543;SDS011;58097;48.364;-1.224;2023-03-12T02:26:18;20.75;;;5.25;;
70543;SDS011;58097;48.364;-1.224;2023-03-12T02:28:46;28.65;;;5.75;;
70543;SDS011;58097;48.364;-1.224;2023-03-12T02:31:14;33.60;;;6.32;;
70543;SDS011;58097;48.364;-1.224;2023-03-12T02:33:44;30.85;;;5.75;;
70543;SDS011;58097;48.364;-1.224;2023-03-12T02:36:09;30.75;;;5.55;;
70543;SDS011;58097;48.364;-1.224;2023-03-12T02:43:51;30.08;;;4.78;;
70543;SDS011;58097;48.364;-1.224;2023-03-12T02:46:44;33.30;;;7.15;;
70543;SDS011;58097;48.364;-1.224;2023-03-12T02:49:11;39.20;;;5.15;;
70543;SDS011;58097;48.364;-1.224;2023-03-12T02:51:38;27.48;;;4.82;;
70543;SDS011;58097;48.364;-1.224;2023-03-12T02:54:08;28.73;;;4.85;;
70543;SDS011;58097;48.364;-1.224;2023-03-12T02:56:34;30.15;;;5.90;;
70543;SDS011;58097;48.364;-1.224;2023-03-12T02:59:00;29.88;;;4.45;;
70543;SDS011;58097;48.364;-1.224;2023-03-12T03:01:25;40.22;;;4.72;;
70543;SDS011;58097;48.364;-1.224;2023-03-12T03:03:51;42.47;;;6.28;;
70543;SDS011;58097;48.364;-1.224;2023-03-12T03:06:18;31.27;;;5.65;;
70543;SDS011;58097;48.364;-1.224;2023-03-12T03:08:44;39.97;;;8.10;;
70543;SDS011;58097;48.364;-1.224;2023-03-12T03:11:09;34.13;;;7.05;;
70543;SDS011;58097;48.364;-1.224;2023-03-12T03:13:35;33.22;;;5.55;;
70543;SDS011;58097;48.364;-1.224;2023-03-12T03:16:00;36.95;;;5.60;;
70543;SDS011;58097;48.364;-1.224;2023-03-12T03:18:28;41.92;;;7.82;;
70543;SDS011;58097;48.364;-1.224;2023-03-12T03:20:57;41.33;;;6.68;;
70543;SDS011;58097;48.364;-1.224;2023-03-12T03:23:27;38.45;;;6.70;;
70543;SDS011;58097;48.364;-1.224;2023-03-12T03:25:53;28.25;;;5.65;;
70543;SDS011;58097;48.364;-1.224;2023-03-12T03:28:20;28.92;;;4.72;;
70543;SDS011;58097;48.364;-1.224;2023-03-12T03:30:47;27.80;;;7.18;;
70543;SDS011;58097;48.364;-1.224;2023-03-12T03:33:13;31.88;;;5.45;;
70543;SDS011;58097;48.364;-1.224;2023-03-12T03:35:39;28.75;;;6.80;;
70543;SDS011;58097;48.364;-1.224;2023-03-12T03:38:04;28.25;;;5.60;;
70543;SDS011;58097;48.364;-1.224;2023-03-12T03:40:31;38.25;;;5.70;;
70543;SDS011;58097;48.364;-1.224;2023-03-12T03:42:57;31.70;;;6.03;;
70543;SDS011;58097;48.364;-1.224;2023-03-12T03:45:22;34.03;;;6.70;;
70543;SDS011;58097;48.364;-1.224;2023-03-12T03:47:48;36.90;;;5.97;;
70543;SDS011;58097;48.364;-1.224;2023-03-12T03:50:13;37.17;;;5.28;;
70543;SDS011;58097;48.364;-1.224;2023-03-12T03:52:38;32.58;;;5.53;;
70543;SDS011;58097;48.364;-1.224;2023-03-12T03:55:04;33.40;;;6.20;;
70543;SDS011;58097;48.364;-1.224;2023-03-12T03:57:29;35.25;;;6.95;;
70543;SDS011;58097;48.364;-1.224;2023-03-12T03:59:55;27.95;;;6.13;;
70543;SDS011;58097;48.364;-1.224;2023-03-12T04:02:22;31.85;;;6.63;;
70543;SDS011;58097;48.364;-1.224;2023-03-12T04:04:48;26.27;;;5.60;;
70543;SDS011;58097;48.364;-1.224;2023-03-12T04:07:14;27.60;;;6.38;;
70543;SDS011;58097;48.364;-1.224;2023-03-12T04:09:40;20.10;;;5.53;;
70543;SDS011;58097;48.364;-1.224;2023-03-12T04:12:05;34.08;;;6.03;;
70543;SDS011;58097;48.364;-1.224;2023-03-12T04:14:31;30.88;;;7.85;;
70543;SDS011;58097;48.364;-1.224;2023-03-12T04:16:56;24.10;;;4.95;;
70543;SDS011;58097;48.364;-1.224;2023-03-12T04:19:22;23.98;;;5.00;;
70543;SDS011;58097;48.364;-1.224;2023-03-12T04:21:47;26.42;;;5.55;;
70543;SDS011;58097;48.364;-1.224;2023-03-12T04:24:13;38.42;;;5.40;;
70543;SDS011;58097;48.364;-1.224;2023-03-12T04:26:40;27.33;;;6.50;;
70543;SDS011;58097;48.364;-1.224;2023-03-12T04:29:05;34.90;;;5.25;;
70543;SDS011;58097;48.364;-1.224;2023-03-12T04:31:31;35.75;;;6.53;;
70543;SDS011;58097;48.364;-1.224;2023-03-12T04:33:56;26.30;;;5.10;;
70543;SDS011;58097;48.364;-1.224;2023-03-12T04:36:22;31.25;;;6.00;;
70543;SDS011;58097;48.364;-1.224;2023-03-12T04:38:47;35.85;;;6.28;;
70543;SDS011;58097;48.364;-1.224;2023-03-12T04:41:13;34.90;;;6.15;;
70543;SDS011;58097;48.364;-1.224;2023-03-12T04:43:39;27.60;;;5.43;;
70543;SDS011;58097;48.364;-1.224;2023-03-12T04:46:05;37.90;;;5.45;;
70543;SDS011;58097;48.364;-1.224;2023-03-12T04:48:32;28.45;;;5.13;;
70543;SDS011;58097;48.364;-1.224;2023-03-12T04:50:58;33.10;;;5.50;;
70543;SDS011;58097;48.364;-1.224;2023-03-12T04:53:23;30.52;;;6.47;;
70543;SDS011;58097;48.364;-1.224;2023-03-12T04:55:49;35.45;;;7.15;;
70543;SDS011;58097;48.364;-1.224;2023-03-12T04:58:15;30.00;;;5.50;;
70543;SDS011;58097;48.364;-1.224;2023-03-12T05:00:42;44.33;;;6.72;;
70543;SDS011;58097;48.364;-1.224;2023-03-12T05:03:08;30.38;;;5.85;;
70543;SDS011;58097;48.364;-1.224;2023-03-12T05:05:34;51.72;;;6.85;;
70543;SDS011;58097;48.364;-1.224;2023-03-12T05:07:59;27.38;;;4.55;;
70543;SDS011;58097;48.364;-1.224;2023-03-12T05:10:25;37.10;;;6.35;;
70543;SDS011;58097;48.364;-1.224;2023-03-12T05:12:50;39.13;;;5.68;;
70543;SDS011;58097;48.364;-1.224;2023-03-12T05:15:16;38.22;;;5.40;;
70543;SDS011;58097;48.364;-1.224;2023-03-12T05:17:42;33.78;;;6.03;;
70543;SDS011;58097;48.364;-1.224;2023-03-12T05:20:08;32.55;;;7.20;;
70543;SDS011;58097;48.364;-1.224;2023-03-12T05:22:34;27.73;;;5.70;;
70543;SDS011;58097;48.364;-1.224;2023-03-12T05:25:00;33.80;;;6.30;;
70543;SDS011;58097;48.364;-1.224;2023-03-12T05:27:25;37.17;;;5.72;;
70543;SDS011;58097;48.364;-1.224;2023-03-12T05:29:51;32.88;;;4.72;;
70543;SDS011;58097;48.364;-1.224;2023-03-12T05:32:17;40.33;;;5.90;;
70543;SDS011;58097;48.364;-1.224;2023-03-12T05:34:42;39.45;;;5.53;;
70543;SDS011;58097;48.364;-1.224;2023-03-12T05:37:08;27.23;;;5.05;;
70543;SDS011;58097;48.364;-1.224;2023-03-12T05:39:33;35.38;;;6.38;;
70543;SDS011;58097;48.364;-1.224;2023-03-12T05:41:59;31.95;;;5.43;;
70543;SDS011;58097;48.364;-1.224;2023-03-12T05:44:24;35.33;;;7.07;;
70543;SDS011;58097;48.364;-1.224;2023-03-12T05:46:51;38.08;;;5.53;;
70543;SDS011;58097;48.364;-1.224;2023-03-12T05:49:17;37.55;;;7.03;;
70543;SDS011;58097;48.364;-1.224;2023-03-12T05:51:45;44.80;;;6.50;;
70543;SDS011;58097;48.364;-1.224;2023-03-12T05:54:11;36.97;;;6.47;;
70543;SDS011;58097;48.364;-1.224;2023-03-12T05:56:36;31.20;;;6.18;;
70543;SDS011;58097;48.364;-1.224;2023-03-12T05:59:02;32.78;;;5.57;;
70543;SDS011;58097;48.364;-1.224;2023-03-12T06:01:28;36.30;;;6.35;;
70543;SDS011;58097;48.364;-1.224;2023-03-12T06:03:54;25.50;;;4.32;;
70543;SDS011;58097;48.364;-1.224;2023-03-12T06:06:20;42.40;;;7.05;;
70543;SDS011;58097;48.364;-1.224;2023-03-12T06:08:47;29.23;;;5.75;;
70543;SDS011;58097;48.364;-1.224;2023-03-12T06:11:13;27.08;;;5.00;;
70543;SDS011;58097;48.364;-1.224;2023-03-12T06:13:38;26.98;;;6.40;;
70543;SDS011;58097;48.364;-1.224;2023-03-12T06:16:08;33.95;;;5.93;;
70543;SDS011;58097;48.364;-1.224;2023-03-12T06:18:36;36.70;;;6.13;;
70543;SDS011;58097;48.364;-1.224;2023-03-12T06:21:09;39.47;;;7.32;;
70543;SDS011;58097;48.364;-1.224;2023-03-12T06:23:35;41.20;;;7.20;;
70543;SDS011;58097;48.364;-1.224;2023-03-12T06:26:00;41.20;;;8.55;;
70543;SDS011;58097;48.364;-1.224;2023-03-12T06:28:26;44.00;;;10.60;;
70543;SDS011;58097;48.364;-1.224;2023-03-12T06:30:52;39.03;;;9.05;;
70543;SDS011;58097;48.364;-1.224;2023-03-12T06:33:18;34.55;;;8.73;;
70543;SDS011;58097;48.364;-1.224;2023-03-12T06:35:43;41.92;;;10.68;;
70543;SDS011;58097;48.364;-1.224;2023-03-12T06:38:09;34.65;;;9.18;;
70543;SDS011;58097;48.364;-1.224;2023-03-12T06:40:35;27.33;;;6.03;;
70543;SDS011;58097;48.364;-1.224;2023-03-12T06:43:00;32.85;;;4.43;;
70543;SDS011;58097;48.364;-1.224;2023-03-12T06:45:25;35.47;;;8.70;;
70543;SDS011;58097;48.364;-1.224;2023-03-12T06:47:51;34.78;;;7.95;;
70543;SDS011;58097;48.364;-1.224;2023-03-12T06:50:16;28.15;;;7.57;;
70543;SDS011;58097;48.364;-1.224;2023-03-12T06:52:42;27.10;;;6.68;;
70543;SDS011;58097;48.364;-1.224;2023-03-12T06:55:07;34.22;;;7.35;;
70543;SDS011;58097;48.364;-1.224;2023-03-12T06:57:33;36.92;;;6.82;;
70543;SDS011;58097;48.364;-1.224;2023-03-12T06:59:58;32.50;;;6.20;;
70543;SDS011;58097;48.364;-1.224;2023-03-12T07:02:23;34.83;;;6.47;;
70543;SDS011;58097;48.364;-1.224;2023-03-12T07:04:49;25.92;;;6.55;;
70543;SDS011;58097;48.364;-1.224;2023-03-12T07:07:14;35.80;;;5.82;;
70543;SDS011;58097;48.364;-1.224;2023-03-12T07:09:41;29.00;;;5.65;;
70543;SDS011;58097;48.364;-1.224;2023-03-12T07:12:06;27.77;;;4.40;;
70543;SDS011;58097;48.364;-1.224;2023-03-12T07:14:32;24.92;;;6.53;;
70543;SDS011;58097;48.364;-1.224;2023-03-12T07:16:57;22.38;;;5.40;;
70543;SDS011;58097;48.364;-1.224;2023-03-12T07:19:26;18.70;;;4.93;;
70543;SDS011;58097;48.364;-1.224;2023-03-12T07:21:51;12.80;;;2.97;;
70543;SDS011;58097;48.364;-1.224;2023-03-12T07:24:17;10.90;;;3.42;;
70543;SDS011;58097;48.364;-1.224;2023-03-12T07:26:42;12.80;;;4.55;;
70543;SDS011;58097;48.364;-1.224;2023-03-12T07:29:07;13.32;;;4.22;;
70543;SDS011;58097;48.364;-1.224;2023-03-12T07:31:33;19.92;;;5.32;;
70543;SDS011;58097;48.364;-1.224;2023-03-12T07:33:58;11.93;;;3.78;;
70543;SDS011;58097;48.364;-1.224;2023-03-12T07:36:24;11.75;;;3.75;;
70543;SDS011;58097;48.364;-1.224;2023-03-12T07:38:49;18.88;;;4.40;;
70543;SDS011;58097;48.364;-1.224;2023-03-12T07:41:16;13.07;;;4.03;;
70543;SDS011;58097;48.364;-1.224;2023-03-12T07:43:41;16.50;;;4.32;;
70543;SDS011;58097;48.364;-1.224;2023-03-12T07:46:07;15.43;;;3.53;;
70543;SDS011;58097;48.364;-1.224;2023-03-12T07:48:32;19.48;;;5.03;;
70543;SDS011;58097;48.364;-1.224;2023-03-12T07:50:57;17.52;;;4.38;;
70543;SDS011;58097;48.364;-1.224;2023-03-12T07:53:23;9.63;;;3.17;;
70543;SDS011;58097;48.364;-1.224;2023-03-12T07:55:48;13.43;;;4.60;;
70543;SDS011;58097;48.364;-1.224;2023-03-12T07:58:14;6.03;;;2.42;;
70543;SDS011;58097;48.364;-1.224;2023-03-12T08:00:40;8.85;;;3.55;;
70543;SDS011;58097;48.364;-1.224;2023-03-12T08:03:05;20.40;;;3.30;;
70543;SDS011;58097;48.364;-1.224;2023-03-12T08:05:31;16.55;;;3.13;;
70543;SDS011;58097;48.364;-1.224;2023-03-12T08:07:57;9.45;;;3.03;;
70543;SDS011;58097;48.364;-1.224;2023-03-12T08:10:22;15.20;;;4.13;;
70543;SDS011;58097;48.364;-1.224;2023-03-12T08:12:47;14.02;;;4.00;;
70543;SDS011;58097;48.364;-1.224;2023-03-12T08:15:13;14.60;;;3.75;;
70543;SDS011;58097;48.364;-1.224;2023-03-12T08:17:39;14.55;;;3.75;;
70543;SDS011;58097;48.364;-1.224;2023-03-12T08:20:05;20.92;;;4.68;;
70543;SDS011;58097;48.364;-1.224;2023-03-12T08:22:34;27.40;;;4.57;;
70543;SDS011;58097;48.364;-1.224;2023-03-12T08:25:00;17.17;;;5.18;;
70543;SDS011;58097;48.364;-1.224;2023-03-12T08:27:25;19.08;;;4.45;;
70543;SDS011;58097;48.364;-1.224;2023-03-12T08:29:51;29.08;;;6.07;;
70543;SDS011;58097;48.364;-1.224;2023-03-12T08:32:16;25.77;;;6.00;;
70543;SDS011;58097;48.364;-1.224;2023-03-12T08:34:41;28.63;;;6.05;;
70543;SDS011;58097;48.364;-1.224;2023-03-12T08:37:07;31.23;;;7.28;;
70543;SDS011;58097;48.364;-1.224;2023-03-12T08:39:32;25.70;;;5.90;;
70543;SDS011;58097;48.364;-1.224;2023-03-12T08:41:58;33.25;;;6.30;;
70543;SDS011;58097;48.364;-1.224;2023-03-12T08:44:24;31.38;;;6.28;;
70543;SDS011;58097;48.364;-1.224;2023-03-12T08:46:50;25.98;;;4.90;;
70543;SDS011;58097;48.364;-1.224;2023-03-12T08:49:16;30.05;;;5.40;;
70543;SDS011;58097;48.364;-1.224;2023-03-12T08:51:42;38.25;;;6.22;;
70543;SDS011;58097;48.364;-1.224;2023-03-12T08:54:08;34.03;;;7.20;;
70543;SDS011;58097;48.364;-1.224;2023-03-12T08:56:33;27.67;;;6.78;;
70543;SDS011;58097;48.364;-1.224;2023-03-12T08:59:02;28.85;;;5.97;;
70543;SDS011;58097;48.364;-1.224;2023-03-12T09:01:28;27.45;;;5.35;;
70543;SDS011;58097;48.364;-1.224;2023-03-12T09:03:53;28.75;;;5.38;;
70543;SDS011;58097;48.364;-1.224;2023-03-12T09:06:19;44.22;;;6.22;;
70543;SDS011;58097;48.364;-1.224;2023-03-12T09:08:45;38.80;;;5.30;;
70543;SDS011;58097;48.364;-1.224;2023-03-12T09:11:11;34.58;;;5.43;;
70543;SDS011;58097;48.364;-1.224;2023-03-12T09:13:38;25.73;;;5.65;;
70543;SDS011;58097;48.364;-1.224;2023-03-12T09:16:04;43.92;;;6.97;;
70543;SDS011;58097;48.364;-1.224;2023-03-12T09:18:31;30.98;;;5.28;;
70543;SDS011;58097;48.364;-1.224;2023-03-12T09:20:57;26.25;;;5.20;;
70543;SDS011;58097;48.364;-1.224;2023-03-12T09:23:23;32.47;;;5.78;;
70543;SDS011;58097;48.364;-1.224;2023-03-12T09:25:49;30.13;;;5.35;;
70543;SDS011;58097;48.364;-1.224;2023-03-12T09:28:15;28.83;;;4.45;;
70543;SDS011;58097;48.364;-1.224;2023-03-12T09:30:40;37.92;;;4.85;;
70543;SDS011;58097;48.364;-1.224;2023-03-12T09:33:06;36.22;;;5.68;;
70543;SDS011;58097;48.364;-1.224;2023-03-12T09:35:32;35.80;;;5.70;;
70543;SDS011;58097;48.364;-1.224;2023-03-12T09:37:57;40.55;;;5.38;;
70543;SDS011;58097;48.364;-1.224;2023-03-12T09:40:24;20.58;;;3.97;;
70543;SDS011;58097;48.364;-1.224;2023-03-12T09:42:57;27.50;;;5.57;;
70543;SDS011;58097;48.364;-1.224;2023-03-12T09:45:25;24.67;;;4.28;;
70543;SDS011;58097;48.364;-1.224;2023-03-12T09:50:26;40.17;;;5.47;;
70543;SDS011;58097;48.364;-1.224;2023-03-12T09:55:27;19.52;;;4.07;;
70543;SDS011;58097;48.364;-1.224;2023-03-12T09:58:00;33.40;;;4.85;;
70543;SDS011;58097;48.364;-1.224;2023-03-12T10:00:30;31.95;;;5.75;;
70543;SDS011;58097;48.364;-1.224;2023-03-12T10:06:00;29.52;;;4.75;;
70543;SDS011;58097;48.364;-1.224;2023-03-12T10:12:33;27.35;;;6.03;;
70543;SDS011;58097;48.364;-1.224;2023-03-12T10:20:59;36.35;;;5.57;;
70543;SDS011;58097;48.364;-1.224;2023-03-12T10:23:32;29.55;;;5.03;;
70543;SDS011;58097;48.364;-1.224;2023-03-12T10:26:02;37.10;;;6.00;;
70543;SDS011;58097;48.364;-1.224;2023-03-12T10:28:44;22.40;;;3.58;;
70543;SDS011;58097;48.364;-1.224;2023-03-12T10:31:15;24.55;;;4.00;;
70543;SDS011;58097;48.364;-1.224;2023-03-12T10:33:46;30.55;;;5.00;;
70543;SDS011;58097;48.364;-1.224;2023-03-12T10:36:20;25.52;;;4.95;;
70543;SDS011;58097;48.364;-1.224;2023-03-12T10:38:49;28.73;;;5.45;;
70543;SDS011;58097;48.364;-1.224;2023-03-12T10:41:15;37.45;;;4.68;;
70543;SDS011;58097;48.364;-1.224;2023-03-12T10:43:44;28.05;;;4.28;;
70543;SDS011;58097;48.364;-1.224;2023-03-12T10:48:37;29.20;;;5.10;;
70543;SDS011;58097;48.364;-1.224;2023-03-12T10:51:04;21.52;;;4.53;;
70543;SDS011;58097;48.364;-1.224;2023-03-12T10:53:35;24.80;;;4.45;;
70543;SDS011;58097;48.364;-1.224;2023-03-12T11:03:50;34.00;;;4.68;;
70543;SDS011;58097;48.364;-1.224;2023-03-12T11:06:35;25.55;;;4.30;;
70543;SDS011;58097;48.364;-1.224;2023-03-12T11:09:21;14.18;;;4.05;;
70543;SDS011;58097;48.364;-1.224;2023-03-12T11:11:48;27.63;;;4.18;;
70543;SDS011;58097;48.364;-1.224;2023-03-12T11:14:15;32.05;;;5.00;;
70543;SDS011;58097;48.364;-1.224;2023-03-12T11:16:43;27.95;;;6.47;;
70543;SDS011;58097;48.364;-1.224;2023-03-12T11:19:11;30.50;;;5.10;;
70543;SDS011;58097;48.364;-1.224;2023-03-12T11:21:38;15.98;;;3.92;;
70543;SDS011;58097;48.364;-1.224;2023-03-12T11:26:51;23.48;;;4.75;;
70543;SDS011;58097;48.364;-1.224;2023-03-12T11:35:09;13.38;;;3.60;;
70543;SDS011;58097;48.364;-1.224;2023-03-12T11:43:57;29.17;;;4.97;;
70543;SDS011;58097;48.364;-1.224;2023-03-12T11:56:52;20.75;;;4.28;;
70543;SDS011;58097;48.364;-1.224;2023-03-12T11:59:33;27.20;;;4.93;;
70543;SDS011;58097;48.364;-1.224;2023-03-12T12:05:01;23.05;;;4.15;;
70543;SDS011;58097;48.364;-1.224;2023-03-12T12:07:35;29.43;;;5.00;;
70543;SDS011;58097;48.364;-1.224;2023-03-12T12:12:59;26.67;;;4.10;;
70543;SDS011;58097;48.364;-1.224;2023-03-12T12:15:32;22.65;;;4.03;;
70543;SDS011;58097;48.364;-1.224;2023-03-12T12:23:57;18.38;;;4.85;;
70543;SDS011;58097;48.364;-1.224;2023-03-12T12:26:39;20.73;;;3.78;;
70543;SDS011;58097;48.364;-1.224;2023-03-12T12:32:15;23.10;;;4.15;;
70543;SDS011;58097;48.364;-1.224;2023-03-12T12:42:48;18.13;;;4.07;;
70543;SDS011;58097;48.364;-1.224;2023-03-12T12:45:20;21.23;;;4.15;;
70543;SDS011;58097;48.364;-1.224;2023-03-12T12:47:52;24.55;;;4.95;;
70543;SDS011;58097;48.364;-1.224;2023-03-12T12:50:23;28.92;;;4.95;;
70543;SDS011;58097;48.364;-1.224;2023-03-12T12:53:29;30.10;;;4.20;;
70543;SDS011;58097;48.364;-1.224;2023-03-12T12:55:51;18.83;;;3.45;;
70543;SDS011;58097;48.364;-1.224;2023-03-12T13:01:01;27.50;;;5.05;;
70543;SDS011;58097;48.364;-1.224;2023-03-12T13:03:27;31.52;;;4.22;;
70543;SDS011;58097;48.364;-1.224;2023-03-12T13:05:56;28.52;;;4.63;;
70543;SDS011;58097;48.364;-1.224;2023-03-12T13:13:39;25.33;;;4.13;;
70543;SDS011;58097;48.364;-1.224;2023-03-12T13:18:57;19.77;;;4.00;;
70543;SDS011;58097;48.364;-1.224;2023-03-12T13:21:30;18.80;;;3.30;;
70543;SDS011;58097;48.364;-1.224;2023-03-12T13:27:01;17.33;;;2.67;;
70543;SDS011;58097;48.364;-1.224;2023-03-12T13:29:38;21.77;;;3.50;;
70543;SDS011;58097;48.364;-1.224;2023-03-12T13:32:08;38.38;;;3.85;;
70543;SDS011;58097;48.364;-1.224;2023-03-12T13:34:55;24.33;;;4.13;;
70543;SDS011;58097;48.364;-1.224;2023-03-12T13:37:29;25.63;;;4.18;;
70543;SDS011;58097;48.364;-1.224;2023-03-12T13:43:05;15.38;;;3.58;;
70543;SDS011;58097;48.364;-1.224;2023-03-12T13:45:30;28.02;;;3.88;;
70543;SDS011;58097;48.364;-1.224;2023-03-12T13:47:57;21.83;;;3.65;;
70543;SDS011;58097;48.364;-1.224;2023-03-12T13:50:26;21.38;;;3.72;;
70543;SDS011;58097;48.364;-1.224;2023-03-12T13:53:03;16.15;;;3.80;;
70543;SDS011;58097;48.364;-1.224;2023-03-12T13:55:31;26.33;;;4.82;;
70543;SDS011;58097;48.364;-1.224;2023-03-12T13:58:06;29.05;;;4.90;;
70543;SDS011;58097;48.364;-1.224;2023-03-12T14:03:03;18.05;;;3.83;;
70543;SDS011;58097;48.364;-1.224;2023-03-12T14:05:58;23.52;;;3.88;;
70543;SDS011;58097;48.364;-1.224;2023-03-12T14:08:41;13.13;;;2.78;;
70543;SDS011;58097;48.364;-1.224;2023-03-12T14:16:51;21.77;;;2.97;;
70543;SDS011;58097;48.364;-1.224;2023-03-12T14:19:22;17.10;;;3.55;;
70543;SDS011;58097;48.364;-1.224;2023-03-12T14:21:56;15.35;;;4.18;;
70543;SDS011;58097;48.364;-1.224;2023-03-12T14:24:27;19.95;;;3.60;;
70543;SDS011;58097;48.364;-1.224;2023-03-12T14:26:54;14.65;;;2.70;;
70543;SDS011;58097;48.364;-1.224;2023-03-12T14:32:17;23.25;;;3.63;;
70543;SDS011;58097;48.364;-1.224;2023-03-12T14:34:45;19.38;;;3.63;;
70543;SDS011;58097;48.364;-1.224;2023-03-12T14:37:17;19.70;;;3.80;;
70543;SDS011;58097;48.364;-1.224;2023-03-12T14:39:49;19.38;;;3.30;;
70543;SDS011;58097;48.364;-1.224;2023-03-12T14:42:37;15.35;;;3.10;;
70543;SDS011;58097;48.364;-1.224;2023-03-12T14:45:09;18.40;;;3.33;;
70543;SDS011;58097;48.364;-1.224;2023-03-12T14:47:41;25.55;;;3.80;;
70543;SDS011;58097;48.364;-1.224;2023-03-12T14:52:48;20.67;;;3.40;;
70543;SDS011;58097;48.364;-1.224;2023-03-12T14:55:14;20.83;;;3.15;;
70543;SDS011;58097;48.364;-1.224;2023-03-12T14:57:43;21.67;;;3.22;;
70543;SDS011;58097;48.364;-1.224;2023-03-12T15:00:13;17.08;;;3.33;;
70543;SDS011;58097;48.364;-1.224;2023-03-12T15:02:45;20.00;;;4.28;;
70543;SDS011;58097;48.364;-1.224;2023-03-12T15:05:15;13.65;;;2.95;;
70543;SDS011;58097;48.364;-1.224;2023-03-12T15:07:42;18.52;;;3.60;;
70543;SDS011;58097;48.364;-1.224;2023-03-12T15:10:24;20.83;;;2.78;;
70543;SDS011;58097;48.364;-1.224;2023-03-12T15:12:51;14.10;;;3.03;;
70543;SDS011;58097;48.364;-1.224;2023-03-12T15:15:35;25.38;;;3.75;;
70543;SDS011;58097;48.364;-1.224;2023-03-12T15:18:05;13.73;;;2.22;;
70543;SDS011;58097;48.364;-1.224;2023-03-12T15:20:35;18.83;;;3.63;;
70543;SDS011;58097;48.364;-1.224;2023-03-12T15:23:01;15.43;;;3.17;;
70543;SDS011;58097;48.364;-1.224;2023-03-12T15:25:27;10.65;;;2.25;;
70543;SDS011;58097;48.364;-1.224;2023-03-12T15:30:32;21.45;;;3.70;;
70543;SDS011;58097;48.364;-1.224;2023-03-12T15:33:41;14.98;;;3.22;;
70543;SDS011;58097;48.364;-1.224;2023-03-12T15:38:36;21.67;;;3.45;;
70543;SDS011;58097;48.364;-1.224;2023-03-12T15:41:25;17.98;;;2.67;;
70543;SDS011;58097;48.364;-1.224;2023-03-12T15:43:54;18.30;;;2.35;;
70543;SDS011;58097;48.364;-1.224;2023-03-12T15:46:22;14.43;;;3.42;;
70543;SDS011;58097;48.364;-1.224;2023-03-12T15:48:49;11.68;;;2.67;;
70543;SDS011;58097;48.364;-1.224;2023-03-12T15:51:33;18.23;;;2.70;;
70543;SDS011;58097;48.364;-1.224;2023-03-12T15:54:01;14.43;;;2.78;;
70543;SDS011;58097;48.364;-1.224;2023-03-12T15:56:45;16.80;;;3.20;;
70543;SDS011;58097;48.364;-1.224;2023-03-12T16:01:43;12.68;;;2.63;;
70543;SDS011;58097;48.364;-1.224;2023-03-12T16:04:13;22.33;;;4.05;;
70543;SDS011;58097;48.364;-1.224;2023-03-12T16:06:39;20.80;;;3.28;;
70543;SDS011;58097;48.364;-1.224;2023-03-12T16:09:08;12.57;;;2.70;;
70543;SDS011;58097;48.364;-1.224;2023-03-12T16:11:38;11.10;;;2.20;;
70543;SDS011;58097;48.364;-1.224;2023-03-12T16:16:37;7.50;;;1.70;;
70543;SDS011;58097;48.364;-1.224;2023-03-12T16:19:07;8.73;;;2.55;;
70543;SDS011;58097;48.364;-1.224;2023-03-12T16:21:35;9.20;;;3.33;;
70543;SDS011;58097;48.364;-1.224;2023-03-12T16:24:01;21.58;;;4.03;;
70543;SDS011;58097;48.364;-1.224;2023-03-12T16:26:26;17.45;;;4.03;;
70543;SDS011;58097;48.364;-1.224;2023-03-12T16:28:52;14.35;;;3.67;;
70543;SDS011;58097;48.364;-1.224;2023-03-12T16:31:17;13.80;;;3.42;;
70543;SDS011;58097;48.364;-1.224;2023-03-12T16:33:43;7.75;;;2.33;;
70543;SDS011;58097;48.364;-1.224;2023-03-12T16:36:12;10.15;;;2.55;;